sensor_id;sensor_type;location;lat;lon;timestamp;P1;durP1;ratioP1;P2;durP2;ratioP2
31660;SDS011;18267;52.234;7.444;2022-10-24T00:01:07;6.78;;;1.50;;
31660;SDS011;18267;52.234;7.444;2022-10-24T00:03:33;4.25;;;1.33;;
31660;SDS011;18267;52.234;7.444;2022-10-24T00:05:59;4.78;;;1.42;;
31660;SDS011;18267;52.234;7.444;2022-10-24T00:08:24;3.70;;;1.42;;
31660;SDS011;18267;52.234;7.444;2022-10-24T00:10:50;5.57;;;1.30;;
31660;SDS011;18267;52.234;7.444;2022-10-24T00:13:16;8.15;;;1.33;;
31660;SDS011;18267;52.234;7.444;2022-10-24T00:15:45;5.93;;;1.70;;
31660;SDS011;18267;52.234;7.444;2022-10-24T00:18:13;10.98;;;1.60;;
31660;SDS011;18267;52.234;7.444;2022-10-24T00:20:39;2.80;;;1.20;;
31660;SDS011;18267;52.234;7.444;2022-10-24T00:23:05;4.15;;;1.30;;
31660;SDS011;18267;52.234;7.444;2022-10-24T00:25:31;4.45;;;1.55;;
31660;SDS011;18267;52.234;7.444;2022-10-24T00:27:56;7.35;;;1.70;;
31660;SDS011;18267;52.234;7.444;2022-10-24T00:30:22;7.18;;;1.60;;
31660;SDS011;18267;52.234;7.444;2022-10-24T00:32:48;8.77;;;1.83;;
31660;SDS011;18267;52.234;7.444;2022-10-24T00:35:15;2.10;;;1.20;;
31660;SDS011;18267;52.234;7.444;2022-10-24T00:37:40;3.38;;;1.50;;
31660;SDS011;18267;52.234;7.444;2022-10-24T00:40:06;6.10;;;1.50;;
31660;SDS011;18267;52.234;7.444;2022-10-24T00:42:32;6.22;;;1.90;;
31660;SDS011;18267;52.234;7.444;2022-10-24T00:44:58;8.38;;;2.20;;
31660;SDS011;18267;52.234;7.444;2022-10-24T00:47:24;6.10;;;1.45;;
31660;SDS011;18267;52.234;7.444;2022-10-24T00:49:52;9.90;;;1.83;;
31660;SDS011;18267;52.234;7.444;2022-10-24T00:52:25;6.43;;;2.13;;
31660;SDS011;18267;52.234;7.444;2022-10-24T00:54:54;7.55;;;1.70;;
31660;SDS011;18267;52.234;7.444;2022-10-24T00:57:27;2.92;;;1.50;;
31660;SDS011;18267;52.234;7.444;2022-10-24T00:59:59;10.57;;;2.00;;
31660;SDS011;18267;52.234;7.444;2022-10-24T01:02:29;9.57;;;1.75;;
31660;SDS011;18267;52.234;7.444;2022-10-24T01:04:55;4.90;;;1.75;;
31660;SDS011;18267;52.234;7.444;2022-10-24T01:07:27;8.85;;;2.13;;
31660;SDS011;18267;52.234;7.444;2022-10-24T01:12:59;10.30;;;2.42;;
31660;SDS011;18267;52.234;7.444;2022-10-24T01:21:15;13.43;;;1.75;;
31660;SDS011;18267;52.234;7.444;2022-10-24T01:23:59;3.47;;;2.15;;
31660;SDS011;18267;52.234;7.444;2022-10-24T01:35:30;15.43;;;2.63;;
31660;SDS011;18267;52.234;7.444;2022-10-24T01:41:04;6.53;;;1.63;;
31660;SDS011;18267;52.234;7.444;2022-10-24T01:46:14;5.20;;;2.15;;
31660;SDS011;18267;52.234;7.444;2022-10-24T01:48:44;8.82;;;2.10;;
31660;SDS011;18267;52.234;7.444;2022-10-24T01:51:15;9.75;;;2.08;;
31660;SDS011;18267;52.234;7.444;2022-10-24T01:53:44;7.50;;;1.77;;
31660;SDS011;18267;52.234;7.444;2022-10-24T01:56:11;9.80;;;1.55;;
31660;SDS011;18267;52.234;7.444;2022-10-24T01:58:37;6.97;;;2.00;;
31660;SDS011;18267;52.234;7.444;2022-10-24T02:01:04;4.53;;;1.75;;
31660;SDS011;18267;52.234;7.444;2022-10-24T02:03:36;6.60;;;1.88;;
31660;SDS011;18267;52.234;7.444;2022-10-24T02:08:39;6.30;;;2.00;;
31660;SDS011;18267;52.234;7.444;2022-10-24T02:11:10;7.80;;;2.17;;
31660;SDS011;18267;52.234;7.444;2022-10-24T02:16:23;4.18;;;1.48;;
31660;SDS011;18267;52.234;7.444;2022-10-24T02:18:49;4.72;;;1.45;;
31660;SDS011;18267;52.234;7.444;2022-10-24T02:21:19;15.52;;;1.95;;
31660;SDS011;18267;52.234;7.444;2022-10-24T02:29:39;7.40;;;1.90;;
31660;SDS011;18267;52.234;7.444;2022-10-24T02:32:08;8.57;;;2.50;;
31660;SDS011;18267;52.234;7.444;2022-10-24T02:34:38;5.18;;;1.92;;
31660;SDS011;18267;52.234;7.444;2022-10-24T02:37:05;8.35;;;1.83;;
31660;SDS011;18267;52.234;7.444;2022-10-24T02:39:32;2.53;;;1.85;;
31660;SDS011;18267;52.234;7.444;2022-10-24T02:41:59;5.07;;;1.77;;
31660;SDS011;18267;52.234;7.444;2022-10-24T02:44:27;8.40;;;1.75;;
31660;SDS011;18267;52.234;7.444;2022-10-24T02:46:54;11.27;;;2.45;;
31660;SDS011;18267;52.234;7.444;2022-10-24T02:49:23;6.03;;;2.35;;
31660;SDS011;18267;52.234;7.444;2022-10-24T02:51:49;10.35;;;2.65;;
31660;SDS011;18267;52.234;7.444;2022-10-24T02:54:15;9.05;;;2.45;;
31660;SDS011;18267;52.234;7.444;2022-10-24T02:56:46;8.85;;;2.42;;
31660;SDS011;18267;52.234;7.444;2022-10-24T02:59:15;10.75;;;2.30;;
31660;SDS011;18267;52.234;7.444;2022-10-24T03:01:41;6.75;;;2.25;;
31660;SDS011;18267;52.234;7.444;2022-10-24T03:04:06;7.40;;;2.28;;
31660;SDS011;18267;52.234;7.444;2022-10-24T03:06:32;5.22;;;1.83;;
31660;SDS011;18267;52.234;7.444;2022-10-24T03:08:58;12.55;;;2.17;;
31660;SDS011;18267;52.234;7.444;2022-10-24T03:11:23;13.15;;;2.35;;
31660;SDS011;18267;52.234;7.444;2022-10-24T03:13:49;9.60;;;1.58;;
31660;SDS011;18267;52.234;7.444;2022-10-24T03:16:15;18.73;;;1.77;;
31660;SDS011;18267;52.234;7.444;2022-10-24T03:18:40;5.97;;;1.77;;
31660;SDS011;18267;52.234;7.444;2022-10-24T03:21:06;10.25;;;1.95;;
31660;SDS011;18267;52.234;7.444;2022-10-24T03:23:32;7.40;;;1.90;;
31660;SDS011;18267;52.234;7.444;2022-10-24T03:25:57;5.88;;;1.65;;
31660;SDS011;18267;52.234;7.444;2022-10-24T03:28:23;4.22;;;1.52;;
31660;SDS011;18267;52.234;7.444;2022-10-24T03:30:49;7.85;;;2.05;;
31660;SDS011;18267;52.234;7.444;2022-10-24T03:33:16;5.18;;;1.70;;
31660;SDS011;18267;52.234;7.444;2022-10-24T03:35:41;6.10;;;1.90;;
31660;SDS011;18267;52.234;7.444;2022-10-24T03:38:07;13.40;;;2.40;;
31660;SDS011;18267;52.234;7.444;2022-10-24T03:40:34;10.20;;;2.00;;
31660;SDS011;18267;52.234;7.444;2022-10-24T03:42:59;3.05;;;1.50;;
31660;SDS011;18267;52.234;7.444;2022-10-24T03:45:25;8.77;;;1.80;;
31660;SDS011;18267;52.234;7.444;2022-10-24T03:47:50;13.88;;;2.20;;
31660;SDS011;18267;52.234;7.444;2022-10-24T03:50:16;5.22;;;1.50;;
31660;SDS011;18267;52.234;7.444;2022-10-24T03:52:42;3.65;;;1.40;;
31660;SDS011;18267;52.234;7.444;2022-10-24T03:55:08;5.05;;;1.75;;
31660;SDS011;18267;52.234;7.444;2022-10-24T03:57:34;13.77;;;2.50;;
31660;SDS011;18267;52.234;7.444;2022-10-24T03:59:59;6.00;;;2.20;;
31660;SDS011;18267;52.234;7.444;2022-10-24T04:02:25;18.85;;;2.03;;
31660;SDS011;18267;52.234;7.444;2022-10-24T04:04:50;3.05;;;1.35;;
31660;SDS011;18267;52.234;7.444;2022-10-24T04:07:16;7.72;;;1.80;;
31660;SDS011;18267;52.234;7.444;2022-10-24T04:09:41;6.28;;;2.20;;
31660;SDS011;18267;52.234;7.444;2022-10-24T04:12:07;6.57;;;2.22;;
31660;SDS011;18267;52.234;7.444;2022-10-24T04:14:32;13.38;;;1.75;;
31660;SDS011;18267;52.234;7.444;2022-10-24T04:16:58;10.25;;;1.90;;
31660;SDS011;18267;52.234;7.444;2022-10-24T04:19:23;12.27;;;1.98;;
31660;SDS011;18267;52.234;7.444;2022-10-24T04:21:49;4.28;;;1.92;;
31660;SDS011;18267;52.234;7.444;2022-10-24T04:24:15;5.93;;;1.95;;
31660;SDS011;18267;52.234;7.444;2022-10-24T04:26:41;7.78;;;1.65;;
31660;SDS011;18267;52.234;7.444;2022-10-24T04:29:07;9.70;;;1.88;;
31660;SDS011;18267;52.234;7.444;2022-10-24T04:31:32;13.57;;;2.42;;
31660;SDS011;18267;52.234;7.444;2022-10-24T04:33:58;9.48;;;2.08;;
31660;SDS011;18267;52.234;7.444;2022-10-24T04:36:23;3.47;;;1.42;;
31660;SDS011;18267;52.234;7.444;2022-10-24T04:38:49;4.40;;;1.52;;
31660;SDS011;18267;52.234;7.444;2022-10-24T04:41:15;6.22;;;1.85;;
31660;SDS011;18267;52.234;7.444;2022-10-24T04:43:40;7.38;;;1.63;;
31660;SDS011;18267;52.234;7.444;2022-10-24T04:46:06;12.93;;;2.00;;
31660;SDS011;18267;52.234;7.444;2022-10-24T04:48:32;3.50;;;1.60;;
31660;SDS011;18267;52.234;7.444;2022-10-24T04:50:58;6.82;;;1.63;;
31660;SDS011;18267;52.234;7.444;2022-10-24T04:53:23;2.15;;;1.42;;
31660;SDS011;18267;52.234;7.444;2022-10-24T04:55:49;5.40;;;1.60;;
31660;SDS011;18267;52.234;7.444;2022-10-24T04:58:15;7.28;;;2.00;;
31660;SDS011;18267;52.234;7.444;2022-10-24T05:00:40;4.95;;;1.80;;
31660;SDS011;18267;52.234;7.444;2022-10-24T05:03:10;5.90;;;1.80;;
31660;SDS011;18267;52.234;7.444;2022-10-24T05:05:36;11.07;;;1.48;;
31660;SDS011;18267;52.234;7.444;2022-10-24T05:08:02;6.78;;;1.63;;
31660;SDS011;18267;52.234;7.444;2022-10-24T05:10:27;7.63;;;1.50;;
31660;SDS011;18267;52.234;7.444;2022-10-24T05:12:53;6.00;;;1.73;;
31660;SDS011;18267;52.234;7.444;2022-10-24T05:15:18;16.58;;;1.50;;
31660;SDS011;18267;52.234;7.444;2022-10-24T05:17:44;13.98;;;1.20;;
31660;SDS011;18267;52.234;7.444;2022-10-24T05:20:10;9.00;;;1.30;;
31660;SDS011;18267;52.234;7.444;2022-10-24T05:22:35;6.68;;;1.45;;
31660;SDS011;18267;52.234;7.444;2022-10-24T05:25:01;6.03;;;1.05;;
31660;SDS011;18267;52.234;7.444;2022-10-24T05:27:27;4.32;;;1.40;;
31660;SDS011;18267;52.234;7.444;2022-10-24T05:29:53;5.03;;;1.70;;
31660;SDS011;18267;52.234;7.444;2022-10-24T05:32:19;5.88;;;1.35;;
31660;SDS011;18267;52.234;7.444;2022-10-24T05:34:46;5.63;;;1.20;;
31660;SDS011;18267;52.234;7.444;2022-10-24T05:37:12;7.47;;;1.40;;
31660;SDS011;18267;52.234;7.444;2022-10-24T05:39:38;3.80;;;1.40;;
31660;SDS011;18267;52.234;7.444;2022-10-24T05:42:03;8.48;;;1.20;;
31660;SDS011;18267;52.234;7.444;2022-10-24T05:44:29;5.40;;;1.65;;
31660;SDS011;18267;52.234;7.444;2022-10-24T05:46:56;2.83;;;1.30;;
31660;SDS011;18267;52.234;7.444;2022-10-24T05:49:21;4.07;;;1.33;;
31660;SDS011;18267;52.234;7.444;2022-10-24T05:51:47;2.58;;;1.00;;
31660;SDS011;18267;52.234;7.444;2022-10-24T05:54:12;3.72;;;1.73;;
31660;SDS011;18267;52.234;7.444;2022-10-24T05:56:38;5.13;;;1.30;;
31660;SDS011;18267;52.234;7.444;2022-10-24T05:59:04;6.88;;;1.38;;
31660;SDS011;18267;52.234;7.444;2022-10-24T06:01:30;5.07;;;1.20;;
31660;SDS011;18267;52.234;7.444;2022-10-24T06:03:56;3.55;;;1.30;;
31660;SDS011;18267;52.234;7.444;2022-10-24T06:06:22;3.75;;;1.25;;
31660;SDS011;18267;52.234;7.444;2022-10-24T06:08:48;3.20;;;0.90;;
31660;SDS011;18267;52.234;7.444;2022-10-24T06:11:13;6.80;;;1.10;;
31660;SDS011;18267;52.234;7.444;2022-10-24T06:13:39;4.13;;;0.85;;
31660;SDS011;18267;52.234;7.444;2022-10-24T06:16:05;4.07;;;0.93;;
31660;SDS011;18267;52.234;7.444;2022-10-24T06:18:31;3.15;;;1.00;;
31660;SDS011;18267;52.234;7.444;2022-10-24T06:21:00;7.15;;;0.70;;
31660;SDS011;18267;52.234;7.444;2022-10-24T06:23:27;4.65;;;0.98;;
31660;SDS011;18267;52.234;7.444;2022-10-24T06:25:53;10.80;;;1.13;;
31660;SDS011;18267;52.234;7.444;2022-10-24T06:28:18;8.27;;;1.00;;
31660;SDS011;18267;52.234;7.444;2022-10-24T06:30:45;11.90;;;1.13;;
31660;SDS011;18267;52.234;7.444;2022-10-24T06:33:12;9.20;;;1.33;;
31660;SDS011;18267;52.234;7.444;2022-10-24T06:35:38;3.97;;;1.00;;
31660;SDS011;18267;52.234;7.444;2022-10-24T06:38:03;8.77;;;1.20;;
31660;SDS011;18267;52.234;7.444;2022-10-24T06:40:29;4.55;;;1.05;;
31660;SDS011;18267;52.234;7.444;2022-10-24T06:42:55;3.08;;;0.82;;
31660;SDS011;18267;52.234;7.444;2022-10-24T06:45:20;6.20;;;0.90;;
31660;SDS011;18267;52.234;7.444;2022-10-24T06:47:47;5.30;;;1.00;;
31660;SDS011;18267;52.234;7.444;2022-10-24T06:50:14;3.58;;;1.10;;
31660;SDS011;18267;52.234;7.444;2022-10-24T06:52:39;6.53;;;1.30;;
31660;SDS011;18267;52.234;7.444;2022-10-24T06:55:05;12.13;;;1.33;;
31660;SDS011;18267;52.234;7.444;2022-10-24T06:57:31;12.93;;;1.15;;
31660;SDS011;18267;52.234;7.444;2022-10-24T06:59:57;8.02;;;1.17;;
31660;SDS011;18267;52.234;7.444;2022-10-24T07:02:22;6.55;;;0.80;;
31660;SDS011;18267;52.234;7.444;2022-10-24T07:04:48;6.22;;;0.93;;
31660;SDS011;18267;52.234;7.444;2022-10-24T07:07:18;4.55;;;1.10;;
31660;SDS011;18267;52.234;7.444;2022-10-24T07:09:49;7.72;;;0.73;;
31660;SDS011;18267;52.234;7.444;2022-10-24T07:12:17;6.72;;;0.75;;
31660;SDS011;18267;52.234;7.444;2022-10-24T07:14:42;13.60;;;1.38;;
31660;SDS011;18267;52.234;7.444;2022-10-24T07:17:08;2.70;;;0.80;;
31660;SDS011;18267;52.234;7.444;2022-10-24T07:19:33;7.82;;;1.33;;
31660;SDS011;18267;52.234;7.444;2022-10-24T07:21:59;8.13;;;1.20;;
31660;SDS011;18267;52.234;7.444;2022-10-24T07:24:24;6.80;;;1.60;;
31660;SDS011;18267;52.234;7.444;2022-10-24T07:26:50;6.95;;;0.93;;
31660;SDS011;18267;52.234;7.444;2022-10-24T07:29:15;3.65;;;0.88;;
31660;SDS011;18267;52.234;7.444;2022-10-24T07:31:41;6.20;;;1.10;;
31660;SDS011;18267;52.234;7.444;2022-10-24T07:34:07;8.10;;;1.65;;
31660;SDS011;18267;52.234;7.444;2022-10-24T07:36:33;6.72;;;1.10;;
31660;SDS011;18267;52.234;7.444;2022-10-24T07:38:59;5.40;;;0.60;;
31660;SDS011;18267;52.234;7.444;2022-10-24T07:41:26;3.00;;;0.95;;
31660;SDS011;18267;52.234;7.444;2022-10-24T07:43:53;7.40;;;1.42;;
31660;SDS011;18267;52.234;7.444;2022-10-24T07:46:20;8.13;;;1.10;;
31660;SDS011;18267;52.234;7.444;2022-10-24T07:48:50;9.23;;;1.45;;
31660;SDS011;18267;52.234;7.444;2022-10-24T07:51:16;7.45;;;1.45;;
31660;SDS011;18267;52.234;7.444;2022-10-24T07:53:43;7.75;;;2.08;;
31660;SDS011;18267;52.234;7.444;2022-10-24T07:56:10;2.72;;;0.82;;
31660;SDS011;18267;52.234;7.444;2022-10-24T07:58:40;10.48;;;1.25;;
31660;SDS011;18267;52.234;7.444;2022-10-24T08:01:08;4.28;;;0.88;;
31660;SDS011;18267;52.234;7.444;2022-10-24T08:03:35;7.90;;;1.20;;
31660;SDS011;18267;52.234;7.444;2022-10-24T08:06:04;14.43;;;1.48;;
31660;SDS011;18267;52.234;7.444;2022-10-24T08:08:31;3.72;;;0.90;;
31660;SDS011;18267;52.234;7.444;2022-10-24T08:10:57;8.02;;;0.73;;
31660;SDS011;18267;52.234;7.444;2022-10-24T08:13:22;10.90;;;1.10;;
31660;SDS011;18267;52.234;7.444;2022-10-24T08:15:48;7.70;;;1.05;;
31660;SDS011;18267;52.234;7.444;2022-10-24T08:18:14;9.43;;;1.30;;
31660;SDS011;18267;52.234;7.444;2022-10-24T08:20:40;9.55;;;0.98;;
31660;SDS011;18267;52.234;7.444;2022-10-24T08:23:05;4.68;;;1.02;;
31660;SDS011;18267;52.234;7.444;2022-10-24T08:25:31;10.65;;;0.90;;
31660;SDS011;18267;52.234;7.444;2022-10-24T08:27:57;8.98;;;0.93;;
31660;SDS011;18267;52.234;7.444;2022-10-24T08:30:22;3.50;;;0.65;;
31660;SDS011;18267;52.234;7.444;2022-10-24T08:32:48;2.60;;;0.60;;
31660;SDS011;18267;52.234;7.444;2022-10-24T08:35:15;3.70;;;1.10;;
31660;SDS011;18267;52.234;7.444;2022-10-24T08:37:42;8.38;;;0.60;;
31660;SDS011;18267;52.234;7.444;2022-10-24T08:40:08;6.30;;;1.40;;
31660;SDS011;18267;52.234;7.444;2022-10-24T08:42:39;4.90;;;0.90;;
31660;SDS011;18267;52.234;7.444;2022-10-24T08:45:16;6.65;;;0.80;;
31660;SDS011;18267;52.234;7.444;2022-10-24T08:48:12;4.55;;;1.00;;
31660;SDS011;18267;52.234;7.444;2022-10-24T08:50:41;10.10;;;1.15;;
31660;SDS011;18267;52.234;7.444;2022-10-24T08:53:14;5.70;;;0.85;;
31660;SDS011;18267;52.234;7.444;2022-10-24T08:55:49;10.77;;;1.97;;
31660;SDS011;18267;52.234;7.444;2022-10-24T08:58:21;2.90;;;0.80;;
31660;SDS011;18267;52.234;7.444;2022-10-24T09:01:11;6.03;;;0.57;;
31660;SDS011;18267;52.234;7.444;2022-10-24T09:03:42;1.98;;;0.70;;
31660;SDS011;18267;52.234;7.444;2022-10-24T09:06:11;4.07;;;0.77;;
31660;SDS011;18267;52.234;7.444;2022-10-24T09:11:14;12.45;;;0.80;;
31660;SDS011;18267;52.234;7.444;2022-10-24T09:13:44;4.80;;;0.95;;
31660;SDS011;18267;52.234;7.444;2022-10-24T09:16:12;4.40;;;0.80;;
31660;SDS011;18267;52.234;7.444;2022-10-24T09:18:41;9.23;;;1.17;;
31660;SDS011;18267;52.234;7.444;2022-10-24T09:21:09;5.90;;;0.90;;
31660;SDS011;18267;52.234;7.444;2022-10-24T09:23:38;6.03;;;0.90;;
31660;SDS011;18267;52.234;7.444;2022-10-24T09:26:05;4.05;;;0.95;;
31660;SDS011;18267;52.234;7.444;2022-10-24T09:28:38;3.95;;;1.17;;
31660;SDS011;18267;52.234;7.444;2022-10-24T09:31:09;6.88;;;0.68;;
31660;SDS011;18267;52.234;7.444;2022-10-24T09:33:43;4.13;;;0.60;;
31660;SDS011;18267;52.234;7.444;2022-10-24T09:36:11;2.65;;;0.95;;
31660;SDS011;18267;52.234;7.444;2022-10-24T09:38:39;9.25;;;0.90;;
31660;SDS011;18267;52.234;7.444;2022-10-24T09:41:09;8.15;;;0.82;;
31660;SDS011;18267;52.234;7.444;2022-10-24T09:46:08;12.88;;;1.25;;
31660;SDS011;18267;52.234;7.444;2022-10-24T09:51:08;16.98;;;1.05;;
31660;SDS011;18267;52.234;7.444;2022-10-24T09:54:48;3.53;;;1.00;;
31660;SDS011;18267;52.234;7.444;2022-10-24T09:56:42;9.25;;;1.05;;
31660;SDS011;18267;52.234;7.444;2022-10-24T10:01:43;10.18;;;1.15;;
31660;SDS011;18267;52.234;7.444;2022-10-24T10:04:14;6.68;;;0.70;;
31660;SDS011;18267;52.234;7.444;2022-10-24T10:06:45;8.45;;;0.95;;
31660;SDS011;18267;52.234;7.444;2022-10-24T10:09:13;7.88;;;1.02;;
31660;SDS011;18267;52.234;7.444;2022-10-24T10:11:47;9.15;;;0.98;;
31660;SDS011;18267;52.234;7.444;2022-10-24T10:14:24;9.43;;;0.90;;
31660;SDS011;18267;52.234;7.444;2022-10-24T10:16:59;6.47;;;0.93;;
31660;SDS011;18267;52.234;7.444;2022-10-24T10:19:30;8.88;;;1.08;;
31660;SDS011;18267;52.234;7.444;2022-10-24T10:22:01;9.55;;;0.70;;
31660;SDS011;18267;52.234;7.444;2022-10-24T10:24:44;8.45;;;1.13;;
31660;SDS011;18267;52.234;7.444;2022-10-24T10:30:17;5.85;;;0.65;;
31660;SDS011;18267;52.234;7.444;2022-10-24T10:32:59;14.82;;;0.70;;
31660;SDS011;18267;52.234;7.444;2022-10-24T10:54:59;7.93;;;1.00;;
31660;SDS011;18267;52.234;7.444;2022-10-24T10:57:51;3.45;;;0.70;;
31660;SDS011;18267;52.234;7.444;2022-10-24T11:00:28;5.28;;;0.68;;
31660;SDS011;18267;52.234;7.444;2022-10-24T11:03:11;4.32;;;0.77;;
31660;SDS011;18267;52.234;7.444;2022-10-24T11:11:37;5.85;;;0.57;;
31660;SDS011;18267;52.234;7.444;2022-10-24T11:14:14;9.43;;;1.02;;
31660;SDS011;18267;52.234;7.444;2022-10-24T11:16:55;8.63;;;1.10;;
31660;SDS011;18267;52.234;7.444;2022-10-24T11:19:34;16.63;;;1.10;;
31660;SDS011;18267;52.234;7.444;2022-10-24T11:22:04;5.57;;;0.50;;
31660;SDS011;18267;52.234;7.444;2022-10-24T11:24:39;5.25;;;0.80;;
31660;SDS011;18267;52.234;7.444;2022-10-24T11:27:11;5.82;;;0.65;;
31660;SDS011;18267;52.234;7.444;2022-10-24T11:29:51;11.70;;;0.70;;
31660;SDS011;18267;52.234;7.444;2022-10-24T11:32:31;8.85;;;1.00;;
31660;SDS011;18267;52.234;7.444;2022-10-24T11:37:43;9.00;;;0.70;;
31660;SDS011;18267;52.234;7.444;2022-10-24T11:40:14;12.85;;;1.10;;
31660;SDS011;18267;52.234;7.444;2022-10-24T11:43:04;9.27;;;1.10;;
31660;SDS011;18267;52.234;7.444;2022-10-24T11:48:30;14.70;;;1.00;;
31660;SDS011;18267;52.234;7.444;2022-10-24T11:51:18;6.80;;;0.73;;
31660;SDS011;18267;52.234;7.444;2022-10-24T11:54:32;7.88;;;1.17;;
31660;SDS011;18267;52.234;7.444;2022-10-24T11:57:10;4.28;;;0.90;;
31660;SDS011;18267;52.234;7.444;2022-10-24T11:59:41;10.50;;;0.77;;
31660;SDS011;18267;52.234;7.444;2022-10-24T12:18:39;3.13;;;0.70;;
31660;SDS011;18267;52.234;7.444;2022-10-24T12:21:10;6.20;;;1.15;;
31660;SDS011;18267;52.234;7.444;2022-10-24T12:23:39;11.98;;;1.52;;
31660;SDS011;18267;52.234;7.444;2022-10-24T12:26:18;14.88;;;1.33;;
31660;SDS011;18267;52.234;7.444;2022-10-24T12:28:55;5.70;;;0.70;;
31660;SDS011;18267;52.234;7.444;2022-10-24T12:36:59;7.63;;;0.80;;
31660;SDS011;18267;52.234;7.444;2022-10-24T12:39:42;14.00;;;1.63;;
31660;SDS011;18267;52.234;7.444;2022-10-24T12:57:59;9.57;;;0.70;;
31660;SDS011;18267;52.234;7.444;2022-10-24T13:00:27;4.63;;;1.02;;
31660;SDS011;18267;52.234;7.444;2022-10-24T13:05:59;9.02;;;0.82;;
31660;SDS011;18267;52.234;7.444;2022-10-24T13:12:18;5.97;;;0.77;;
31660;SDS011;18267;52.234;7.444;2022-10-24T13:14:41;4.85;;;0.80;;
31660;SDS011;18267;52.234;7.444;2022-10-24T13:19:46;9.82;;;1.00;;
31660;SDS011;18267;52.234;7.444;2022-10-24T13:22:27;5.63;;;0.90;;
31660;SDS011;18267;52.234;7.444;2022-10-24T13:24:56;4.72;;;0.70;;
31660;SDS011;18267;52.234;7.444;2022-10-24T13:27:25;9.80;;;1.25;;
31660;SDS011;18267;52.234;7.444;2022-10-24T13:32:21;5.97;;;0.90;;
31660;SDS011;18267;52.234;7.444;2022-10-24T13:40:09;8.73;;;1.13;;
31660;SDS011;18267;52.234;7.444;2022-10-24T13:42:42;10.30;;;1.20;;
31660;SDS011;18267;52.234;7.444;2022-10-24T13:45:58;11.30;;;1.35;;
31660;SDS011;18267;52.234;7.444;2022-10-24T13:48:08;6.22;;;1.10;;
31660;SDS011;18267;52.234;7.444;2022-10-24T13:50:48;8.88;;;1.10;;
31660;SDS011;18267;52.234;7.444;2022-10-24T13:53:42;6.93;;;1.33;;
31660;SDS011;18267;52.234;7.444;2022-10-24T13:56:15;8.15;;;1.25;;
31660;SDS011;18267;52.234;7.444;2022-10-24T13:58:42;12.00;;;1.10;;
31660;SDS011;18267;52.234;7.444;2022-10-24T14:03:46;13.10;;;2.17;;
31660;SDS011;18267;52.234;7.444;2022-10-24T14:06:13;9.55;;;1.20;;
31660;SDS011;18267;52.234;7.444;2022-10-24T14:09:21;4.10;;;1.20;;
31660;SDS011;18267;52.234;7.444;2022-10-24T14:11:33;7.35;;;1.48;;
31660;SDS011;18267;52.234;7.444;2022-10-24T14:14:04;5.22;;;0.70;;
31660;SDS011;18267;52.234;7.444;2022-10-24T14:16:32;4.57;;;1.25;;
31660;SDS011;18267;52.234;7.444;2022-10-24T14:21:40;5.40;;;1.15;;
31660;SDS011;18267;52.234;7.444;2022-10-24T14:24:09;4.38;;;0.90;;
31660;SDS011;18267;52.234;7.444;2022-10-24T14:26:46;6.32;;;0.98;;
31660;SDS011;18267;52.234;7.444;2022-10-24T14:29:22;8.77;;;1.25;;
31660;SDS011;18267;52.234;7.444;2022-10-24T14:32:04;10.18;;;1.25;;
31660;SDS011;18267;52.234;7.444;2022-10-24T14:34:34;9.30;;;1.48;;
31660;SDS011;18267;52.234;7.444;2022-10-24T14:37:04;12.30;;;1.20;;
31660;SDS011;18267;52.234;7.444;2022-10-24T14:39:32;6.28;;;1.52;;
31660;SDS011;18267;52.234;7.444;2022-10-24T14:41:58;8.73;;;1.17;;
31660;SDS011;18267;52.234;7.444;2022-10-24T14:44:25;12.93;;;1.40;;
31660;SDS011;18267;52.234;7.444;2022-10-24T14:49:44;8.23;;;0.90;;
31660;SDS011;18267;52.234;7.444;2022-10-24T14:54:40;10.60;;;1.45;;
31660;SDS011;18267;52.234;7.444;2022-10-24T14:57:14;13.13;;;1.40;;
31660;SDS011;18267;52.234;7.444;2022-10-24T14:59:43;9.82;;;1.48;;
31660;SDS011;18267;52.234;7.444;2022-10-24T15:07:38;13.18;;;1.10;;
31660;SDS011;18267;52.234;7.444;2022-10-24T15:12:37;18.58;;;1.52;;
31660;SDS011;18267;52.234;7.444;2022-10-24T15:17:45;4.95;;;0.80;;
31660;SDS011;18267;52.234;7.444;2022-10-24T15:20:15;9.40;;;1.50;;
31660;SDS011;18267;52.234;7.444;2022-10-24T15:22:46;11.15;;;1.33;;
31660;SDS011;18267;52.234;7.444;2022-10-24T15:25:19;5.45;;;0.82;;
31660;SDS011;18267;52.234;7.444;2022-10-24T15:27:49;10.95;;;1.42;;
31660;SDS011;18267;52.234;7.444;2022-10-24T15:30:23;9.00;;;1.40;;
31660;SDS011;18267;52.234;7.444;2022-10-24T15:32:54;9.05;;;1.10;;
31660;SDS011;18267;52.234;7.444;2022-10-24T15:35:22;6.65;;;1.08;;
31660;SDS011;18267;52.234;7.444;2022-10-24T15:37:58;6.05;;;1.00;;
31660;SDS011;18267;52.234;7.444;2022-10-24T15:40:29;6.07;;;1.13;;
31660;SDS011;18267;52.234;7.444;2022-10-24T15:42:56;7.38;;;1.73;;
31660;SDS011;18267;52.234;7.444;2022-10-24T15:45:22;12.00;;;1.77;;
31660;SDS011;18267;52.234;7.444;2022-10-24T15:47:48;12.13;;;1.80;;
31660;SDS011;18267;52.234;7.444;2022-10-24T15:50:15;10.60;;;2.78;;
31660;SDS011;18267;52.234;7.444;2022-10-24T15:52:43;17.85;;;2.90;;
31660;SDS011;18267;52.234;7.444;2022-10-24T15:55:17;9.82;;;2.20;;
31660;SDS011;18267;52.234;7.444;2022-10-24T15:57:45;10.82;;;1.10;;
31660;SDS011;18267;52.234;7.444;2022-10-24T16:00:12;9.13;;;1.27;;
31660;SDS011;18267;52.234;7.444;2022-10-24T16:02:42;6.10;;;1.35;;
31660;SDS011;18267;52.234;7.444;2022-10-24T16:05:14;5.13;;;0.90;;
31660;SDS011;18267;52.234;7.444;2022-10-24T16:07:42;5.35;;;0.70;;
31660;SDS011;18267;52.234;7.444;2022-10-24T16:10:09;5.43;;;1.13;;
31660;SDS011;18267;52.234;7.444;2022-10-24T16:12:36;11.48;;;1.38;;
31660;SDS011;18267;52.234;7.444;2022-10-24T16:15:02;14.70;;;1.17;;
31660;SDS011;18267;52.234;7.444;2022-10-24T16:17:28;7.57;;;0.85;;
31660;SDS011;18267;52.234;7.444;2022-10-24T16:19:54;5.70;;;0.90;;
31660;SDS011;18267;52.234;7.444;2022-10-24T16:22:19;7.82;;;1.00;;
31660;SDS011;18267;52.234;7.444;2022-10-24T16:24:45;8.35;;;1.65;;
31660;SDS011;18267;52.234;7.444;2022-10-24T16:27:10;4.65;;;0.50;;
31660;SDS011;18267;52.234;7.444;2022-10-24T16:29:36;5.90;;;0.77;;
31660;SDS011;18267;52.234;7.444;2022-10-24T16:32:01;7.53;;;0.80;;
31660;SDS011;18267;52.234;7.444;2022-10-24T16:34:27;12.95;;;0.90;;
31660;SDS011;18267;52.234;7.444;2022-10-24T16:36:53;5.00;;;0.73;;
31660;SDS011;18267;52.234;7.444;2022-10-24T16:39:19;5.75;;;1.08;;
31660;SDS011;18267;52.234;7.444;2022-10-24T16:41:44;4.95;;;1.13;;
31660;SDS011;18267;52.234;7.444;2022-10-24T16:44:11;10.27;;;1.13;;
31660;SDS011;18267;52.234;7.444;2022-10-24T16:46:37;6.32;;;1.08;;
31660;SDS011;18267;52.234;7.444;2022-10-24T16:49:03;3.10;;;0.73;;
31660;SDS011;18267;52.234;7.444;2022-10-24T16:51:29;2.92;;;0.70;;
31660;SDS011;18267;52.234;7.444;2022-10-24T16:53:56;6.03;;;0.88;;
31660;SDS011;18267;52.234;7.444;2022-10-24T16:56:22;4.10;;;0.93;;
31660;SDS011;18267;52.234;7.444;2022-10-24T16:58:48;3.30;;;0.65;;
31660;SDS011;18267;52.234;7.444;2022-10-24T17:01:14;6.40;;;0.95;;
31660;SDS011;18267;52.234;7.444;2022-10-24T17:03:40;13.52;;;1.10;;
31660;SDS011;18267;52.234;7.444;2022-10-24T17:06:07;5.03;;;0.45;;
31660;SDS011;18267;52.234;7.444;2022-10-24T17:08:33;10.35;;;0.75;;
31660;SDS011;18267;52.234;7.444;2022-10-24T17:10:59;6.53;;;0.82;;
31660;SDS011;18267;52.234;7.444;2022-10-24T17:13:24;10.63;;;1.02;;
31660;SDS011;18267;52.234;7.444;2022-10-24T17:15:51;7.40;;;1.50;;
31660;SDS011;18267;52.234;7.444;2022-10-24T17:18:17;6.78;;;0.90;;
31660;SDS011;18267;52.234;7.444;2022-10-24T17:20:44;8.23;;;1.00;;
31660;SDS011;18267;52.234;7.444;2022-10-24T17:23:12;4.72;;;0.82;;
31660;SDS011;18267;52.234;7.444;2022-10-24T17:25:41;8.80;;;0.82;;
31660;SDS011;18267;52.234;7.444;2022-10-24T17:28:09;11.93;;;1.35;;
31660;SDS011;18267;52.234;7.444;2022-10-24T17:30:36;9.23;;;0.95;;